Time;durP1;ratioP1;P1;durP2;ratioP2;P2;SDS_P1;SDS_P2;PMS_P1;PMS_P2;Temp;Humidity;BMP_temperature;BMP_pressure;BME280_temperature;BME280_humidity;BME280_pressure;Samples;Min_cycle;Max_cycle;Signal;HPM_P1;HPM_P2
2021/03/12 03:47:39;;;;;;;5.18;2.90;;;7.20;99.90;;;;;;5010644;23;20057;-82
2021/03/12 03:50:06;;;;;;;3.28;2.10;;;7.10;99.90;;;;;;5012578;28;20069;-84
2021/03/12 03:52:32;;;;;;;3.88;2.28;;;7.20;99.90;;;;;;5030526;28;20070;-83
2021/03/12 03:54:59;;;;;;;2.03;1.92;;;7.30;99.90;;;;;;5020453;28;20055;-84
2021/03/12 03:57:26;;;;;;;2.65;2.38;;;7.30;99.90;;;;;;5017028;28;20045;-83
2021/03/12 03:59:52;;;;;;;2.85;2.20;;;7.30;99.90;;;;;;5010190;28;21310;-83
2021/03/12 04:02:19;;;;;;;3.08;1.85;;;7.30;99.90;;;;;;5008571;28;20069;-83
2021/03/12 04:04:47;;;;;;;2.53;2.30;;;7.40;99.90;;;;;;5009642;28;20392;-80
2021/03/12 04:07:15;;;;;;;2.88;2.50;;;7.40;99.90;;;;;;5017750;28;20039;-83
2021/03/12 04:09:41;;;;;;;2.10;2.00;;;7.50;99.90;;;;;;5010723;28;20042;-83
2021/03/12 04:12:08;;;;;;;3.35;2.53;;;7.50;99.90;;;;;;5019203;28;20034;-81
2021/03/12 04:14:36;;;;;;;2.65;2.40;;;7.60;99.90;;;;;;5009809;28;20103;-83
2021/03/12 04:17:03;;;;;;;2.20;2.10;;;7.60;99.90;;;;;;5009077;28;20046;-84
2021/03/12 04:19:29;;;;;;;3.30;2.20;;;7.70;99.90;;;;;;5011004;28;20043;-83
2021/03/12 04:21:55;;;;;;;2.95;1.88;;;7.80;99.90;;;;;;5004744;28;20026;-83
2021/03/12 04:24:21;;;;;;;2.38;2.22;;;7.90;99.90;;;;;;5008131;28;20070;-81
2021/03/12 04:26:47;;;;;;;2.13;1.92;;;8.00;99.90;;;;;;5009132;28;20042;-83
2021/03/12 04:29:14;;;;;;;2.58;2.10;;;8.00;99.90;;;;;;5007498;28;20779;-81
2021/03/12 04:31:39;;;;;;;2.72;2.22;;;8.10;99.90;;;;;;5008344;28;20029;-82
2021/03/12 04:34:05;;;;;;;2.40;2.22;;;8.00;99.90;;;;;;5010512;28;20486;-83
2021/03/12 04:36:32;;;;;;;5.40;2.53;;;8.00;99.90;;;;;;5010449;28;20111;-81
2021/03/12 04:38:58;;;;;;;3.03;2.17;;;8.00;99.90;;;;;;5010910;28;20143;-81
2021/03/12 04:41:24;;;;;;;4.60;2.20;;;8.00;99.90;;;;;;4994252;28;20043;-82
2021/03/12 04:43:50;;;;;;;5.07;3.53;;;7.90;99.90;;;;;;5009393;28;20042;-81
2021/03/12 04:46:16;;;;;;;3.67;2.88;;;7.60;99.90;;;;;;5009508;28;20046;-81
2021/03/12 04:48:43;;;;;;;3.72;2.90;;;7.60;99.90;;;;;;5010350;28;20137;-80
2021/03/12 04:51:09;;;;;;;3.03;2.00;;;7.60;99.90;;;;;;5010826;28;20043;-82
2021/03/12 04:53:38;;;;;;;3.13;2.30;;;7.60;99.90;;;;;;5011090;28;20046;-81
2021/03/12 04:56:05;;;;;;;2.13;1.90;;;7.50;99.90;;;;;;5022935;28;20066;-82
2021/03/12 04:58:31;;;;;;;2.42;1.92;;;7.50;99.90;;;;;;5033647;28;20054;-82
2021/03/12 05:00:57;;;;;;;4.55;2.38;;;7.60;99.90;;;;;;5038619;28;20034;-83
2021/03/12 05:03:23;;;;;;;2.80;2.55;;;7.60;99.90;;;;;;5026910;28;20042;-82
2021/03/12 05:05:49;;;;;;;2.08;1.92;;;7.70;99.90;;;;;;5039146;28;20053;-83
2021/03/12 05:08:16;;;;;;;4.10;2.55;;;7.60;99.90;;;;;;5036312;28;20039;-84
2021/03/12 05:11:07;;;;;;;2.25;2.05;;;7.70;99.90;;;;;;5029927;28;20056;-83
2021/03/12 05:13:32;;;;;;;2.30;2.07;;;7.70;99.90;;;;;;5012630;28;20034;-82
2021/03/12 05:15:58;;;;;;;4.30;2.58;;;7.70;99.90;;;;;;5030394;28;20337;-82
2021/03/12 05:18:24;;;;;;;4.30;2.13;;;7.70;99.90;;;;;;5029850;28;20038;-83
2021/03/12 05:20:50;;;;;;;2.60;2.40;;;7.70;99.90;;;;;;5029788;28;20054;-83
2021/03/12 05:23:17;;;;;;;2.50;2.30;;;7.80;99.90;;;;;;5030326;28;20073;-83
2021/03/12 05:25:43;;;;;;;2.22;2.13;;;7.80;99.10;;;;;;5029121;28;20054;-83
2021/03/12 05:28:10;;;;;;;2.35;2.20;;;7.80;99.80;;;;;;5031363;28;20041;-83
2021/03/12 05:30:36;;;;;;;3.55;2.47;;;7.80;99.90;;;;;;5031244;28;20038;-82
2021/03/12 05:33:02;;;;;;;5.45;2.10;;;7.70;99.90;;;;;;5013757;28;20042;-83
2021/03/12 05:35:27;;;;;;;2.72;2.38;;;7.70;99.50;;;;;;5030834;28;20479;-81
2021/03/12 05:37:53;;;;;;;4.15;2.22;;;7.60;99.20;;;;;;5030832;28;20072;-80
2021/03/12 05:40:19;;;;;;;4.22;2.78;;;7.60;98.80;;;;;;5029044;28;20042;-82
2021/03/12 05:42:47;;;;;;;2.67;1.92;;;7.60;98.80;;;;;;5030777;28;20123;-84
2021/03/12 05:45:14;;;;;;;5.00;1.80;;;7.60;98.90;;;;;;5033247;28;20041;-83
2021/03/12 05:47:40;;;;;;;2.67;2.47;;;7.50;99.40;;;;;;5034635;28;20790;-84
2021/03/12 05:50:07;;;;;;;2.38;2.17;;;7.60;98.90;;;;;;5021500;28;20055;-84
2021/03/12 05:52:34;;;;;;;2.42;2.17;;;7.60;99.20;;;;;;5016523;28;20049;-84
2021/03/12 05:55:00;;;;;;;3.08;2.17;;;7.60;98.20;;;;;;5032726;28;20104;-85
2021/03/12 05:57:29;;;;;;;4.43;2.47;;;7.60;98.60;;;;;;5033652;28;20042;-83
2021/03/12 05:59:58;;;;;;;2.85;2.13;;;7.70;99.00;;;;;;5040350;28;20065;-83
2021/03/12 06:02:24;;;;;;;3.38;2.00;;;7.80;98.60;;;;;;5039568;28;20047;-84
2021/03/12 06:04:50;;;;;;;3.40;2.10;;;7.80;98.10;;;;;;5027178;28;20121;-84
2021/03/12 06:07:16;;;;;;;2.65;2.40;;;7.90;97.40;;;;;;5038568;28;20042;-83
2021/03/12 06:09:43;;;;;;;3.08;2.10;;;7.90;96.90;;;;;;5038775;28;20090;-83
2021/03/12 06:12:10;;;;;;;5.25;2.25;;;7.90;96.60;;;;;;5034075;28;20046;-84
2021/03/12 06:15:00;;;;;;;3.63;1.92;;;8.00;96.10;;;;;;5034069;28;20038;-85
2021/03/12 06:17:33;;;;;;;4.05;2.10;;;8.10;95.50;;;;;;5024385;28;20033;-85
2021/03/12 06:19:59;;;;;;;8.70;3.47;;;8.20;95.00;;;;;;5014214;28;20030;-84
2021/03/12 06:22:25;;;;;;;4.40;2.70;;;8.20;95.90;;;;;;5032778;28;20042;-84
2021/03/12 06:24:52;;;;;;;3.78;2.65;;;8.20;95.60;;;;;;5033569;28;20074;-85
2021/03/12 06:27:29;;;;;;;4.38;2.88;;;8.30;95.30;;;;;;5034581;28;20065;-85
2021/03/12 06:30:00;;;;;;;3.35;2.42;;;8.40;95.40;;;;;;5026870;28;20113;-84
2021/03/12 06:32:36;;;;;;;;;;;8.40;94.50;;;;;;5020508;28;20048;-83
2021/03/12 06:35:02;;;;;;;2.30;2.10;;;8.30;94.60;;;;;;5024736;28;19922;-83
2021/03/12 06:37:30;;;;;;;2.83;2.22;;;8.30;94.70;;;;;;5027673;28;20058;-83
2021/03/12 06:39:56;;;;;;;3.33;2.40;;;8.30;95.10;;;;;;5027646;28;20038;-84
2021/03/12 06:42:22;;;;;;;5.70;2.92;;;8.20;94.70;;;;;;5025381;28;20049;-85
2021/03/12 06:44:47;;;;;;;2.88;2.03;;;8.20;94.50;;;;;;5022781;28;20149;-82
2021/03/12 06:47:20;;;;;;;3.30;2.40;;;8.30;95.00;;;;;;5028028;28;20062;-84
2021/03/12 06:49:59;;;;;;;2.65;2.38;;;8.40;94.90;;;;;;5028457;28;20050;-82
2021/03/12 06:52:33;;;;;;;3.95;2.70;;;8.40;94.40;;;;;;5026482;28;20038;-84
2021/03/12 06:54:58;;;;;;;3.45;2.10;;;8.50;93.80;;;;;;5023898;28;20046;-84
2021/03/12 06:57:24;;;;;;;4.18;2.33;;;8.50;94.10;;;;;;5018695;28;20034;-84
2021/03/12 07:00:06;;;;;;;3.75;2.38;;;8.60;94.50;;;;;;5024806;28;20053;-84
2021/03/12 07:02:34;;;;;;;3.20;2.20;;;8.70;94.00;;;;;;5026730;28;20058;-84
2021/03/12 07:05:00;;;;;;;4.40;2.30;;;9.20;93.80;;;;;;5022372;28;20046;-84
2021/03/12 07:07:39;;;;;;;2.50;1.95;;;9.50;92.60;;;;;;5024969;28;20042;-83
2021/03/12 07:10:09;;;;;;;3.28;2.50;;;9.50;92.60;;;;;;5026257;28;20857;-83
2021/03/12 07:12:52;;;;;;;2.85;2.00;;;9.40;91.20;;;;;;5023568;28;20061;-84
2021/03/12 07:15:21;;;;;;;3.58;2.00;;;9.20;91.20;;;;;;5026963;28;20042;-82
2021/03/12 07:17:47;;;;;;;2.53;2.35;;;9.00;91.00;;;;;;5024241;28;20038;-82
2021/03/12 07:20:17;;;;;;;2.42;2.22;;;8.90;91.40;;;;;;5020121;28;20065;-84
2021/03/12 07:22:46;;;;;;;2.97;2.22;;;9.30;90.90;;;;;;5014030;28;20101;-85
2021/03/12 07:25:13;;;;;;;2.45;2.17;;;10.80;90.80;;;;;;5027979;28;20049;-84
2021/03/12 07:27:45;;;;;;;3.45;2.38;;;12.00;84.20;;;;;;5024102;28;20053;-83
2021/03/12 07:30:11;;;;;;;3.97;2.45;;;12.60;80.40;;;;;;5024376;28;20671;-85
2021/03/12 07:32:38;;;;;;;2.47;2.03;;;13.30;76.60;;;;;;5028056;28;20047;-83
2021/03/12 07:35:05;;;;;;;2.20;2.00;;;13.10;73.90;;;;;;5018810;28;20661;-83
2021/03/12 07:37:34;;;;;;;2.80;2.42;;;12.50;74.20;;;;;;5026115;28;20034;-82
2021/03/12 07:40:00;;;;;;;4.38;2.40;;;12.20;74.90;;;;;;5017348;28;20046;-84
2021/03/12 07:42:27;;;;;;;2.38;2.20;;;12.20;70.90;;;;;;5028723;28;20039;-84
2021/03/12 07:44:55;;;;;;;3.22;2.20;;;12.40;66.80;;;;;;5028961;28;20047;-83
2021/03/12 07:47:23;;;;;;;2.35;2.10;;;12.80;68.90;;;;;;5028508;28;20062;-84
2021/03/12 07:49:48;;;;;;;4.05;2.42;;;14.10;64.60;;;;;;5009238;28;20086;-83
2021/03/12 07:52:14;;;;;;;2.65;2.45;;;15.70;61.80;;;;;;5027341;28;20047;-82
2021/03/12 07:54:46;;;;;;;2.72;2.53;;;16.80;56.50;;;;;;5027898;28;20049;-84
2021/03/12 07:57:31;;;;;;;2.10;1.90;;;18.20;57.60;;;;;;5018188;28;20810;-86
2021/03/12 07:59:58;;;;;;;2.75;2.50;;;19.10;53.30;;;;;;5025593;28;20054;-83
2021/03/12 08:02:44;;;;;;;3.40;2.50;;;19.60;53.00;;;;;;5007030;28;20515;-83
2021/03/12 08:05:30;;;;;;;3.03;2.72;;;20.70;50.00;;;;;;5027607;28;20041;-82
2021/03/12 08:07:55;;;;;;;2.35;2.22;;;20.60;41.40;;;;;;5023959;28;20077;-83
2021/03/12 08:10:22;;;;;;;2.63;2.28;;;21.50;43.20;;;;;;5031831;28;20101;-83
2021/03/12 08:12:49;;;;;;;2.58;2.17;;;21.80;42.50;;;;;;5007430;28;20053;-83
2021/03/12 08:15:29;;;;;;;2.63;2.40;;;21.00;40.90;;;;;;5029894;28;20094;-82
2021/03/12 08:17:58;;;;;;;3.15;2.83;;;21.20;38.80;;;;;;5029667;28;20054;-83
2021/03/12 08:20:26;;;;;;;3.00;2.67;;;22.40;38.50;;;;;;5032184;28;20030;-82
2021/03/12 08:23:01;;;;;;;3.38;2.40;;;24.30;36.50;;;;;;5019773;28;20786;-83
2021/03/12 08:25:36;;;;;;;2.55;2.33;;;26.10;34.30;;;;;;5028450;28;20049;-84
2021/03/12 08:28:26;;;;;;;3.78;2.70;;;26.40;32.90;;;;;;5033116;28;20049;-82
2021/03/12 08:30:54;;;;;;;2.80;2.50;;;27.30;31.00;;;;;;5032415;28;20030;-84
2021/03/12 08:33:20;;;;;;;2.85;2.65;;;26.80;31.40;;;;;;5031865;28;20269;-84
2021/03/12 08:35:46;;;;;;;2.55;2.40;;;26.00;31.20;;;;;;5031602;28;20038;-85
2021/03/12 08:38:11;;;;;;;3.20;2.90;;;26.20;30.00;;;;;;5030383;28;20089;-83
2021/03/12 08:40:42;;;;;;;2.60;2.40;;;27.20;31.20;;;;;;5030411;28;21060;-85
2021/03/12 08:43:13;;;;;;;4.70;2.88;;;28.80;29.70;;;;;;5031794;28;20042;-84
2021/03/12 08:46:10;;;;;;;3.10;2.88;;;29.40;29.10;;;;;;5030436;28;20045;-84
2021/03/12 08:48:37;;;;;;;3.10;2.90;;;29.50;28.20;;;;;;5001919;28;20761;-84
2021/03/12 08:51:05;;;;;;;2.97;2.72;;;28.80;28.20;;;;;;5029371;28;20042;-84
2021/03/12 08:53:40;;;;;;;2.63;2.40;;;28.10;28.10;;;;;;5027095;28;20054;-83
2021/03/12 08:56:09;;;;;;;5.20;2.90;;;27.10;27.50;;;;;;5028503;28;20753;-82
2021/03/12 08:58:37;;;;;;;3.03;2.72;;;24.80;29.80;;;;;;5029987;28;20044;-84
2021/03/12 09:01:17;;;;;;;2.97;2.58;;;22.20;31.50;;;;;;5029459;28;20050;-83
2021/03/12 09:03:49;;;;;;;5.18;3.00;;;19.40;34.60;;;;;;5028546;28;20111;-83
2021/03/12 09:06:27;;;;;;;2.83;2.60;;;17.10;38.10;;;;;;5027882;28;20054;-83
2021/03/12 09:08:53;;;;;;;3.58;2.80;;;15.80;41.30;;;;;;5020993;28;20077;-84
2021/03/12 09:11:22;;;;;;;2.88;2.35;;;16.20;41.40;;;;;;5029827;28;20046;-84
2021/03/12 09:13:49;;;;;;;2.90;2.58;;;16.50;40.30;;;;;;5028307;28;20042;-84
2021/03/12 09:16:23;;;;;;;2.35;2.15;;;16.70;40.70;;;;;;5033564;28;20057;-82
2021/03/12 09:18:50;;;;;;;3.83;2.42;;;16.50;41.00;;;;;;5019317;28;20057;-84
2021/03/12 09:21:19;;;;;;;2.47;2.22;;;16.40;41.10;;;;;;5014870;28;20034;-82
2021/03/12 09:23:48;;;;;;;2.40;2.30;;;16.00;41.20;;;;;;5029574;28;20038;-84
2021/03/12 09:26:21;;;;;;;2.67;2.28;;;15.00;43.40;;;;;;5031643;28;20043;-83
2021/03/12 09:28:49;;;;;;;2.60;2.40;;;14.20;43.80;;;;;;5022136;28;20192;-84
2021/03/12 09:31:17;;;;;;;2.58;2.30;;;14.00;45.10;;;;;;5030010;28;20508;-85
2021/03/12 09:33:46;;;;;;;4.50;2.85;;;13.50;46.40;;;;;;5032293;28;20089;-85
2021/03/12 09:36:32;;;;;;;6.50;2.60;;;13.30;46.00;;;;;;5033177;28;20048;-83
2021/03/12 09:39:09;;;;;;;3.15;2.40;;;12.90;48.60;;;;;;5032767;28;20039;-85
2021/03/12 09:41:35;;;;;;;3.38;2.88;;;12.80;48.70;;;;;;5015510;28;20045;-85
2021/03/12 09:44:04;;;;;;;4.50;2.30;;;12.90;47.90;;;;;;5032729;28;20129;-84
2021/03/12 09:46:41;;;;;;;3.75;2.63;;;12.90;48.10;;;;;;5037905;28;20062;-85
2021/03/12 09:49:09;;;;;;;4.68;2.35;;;12.80;47.50;;;;;;5013652;28;20104;-85
2021/03/12 09:51:36;;;;;;;3.15;2.15;;;12.80;47.80;;;;;;5033006;28;20041;-85
2021/03/12 09:54:02;;;;;;;2.75;2.55;;;13.10;48.50;;;;;;5031217;28;20042;-85
2021/03/12 09:56:28;;;;;;;4.93;2.70;;;13.60;47.40;;;;;;5013544;28;20125;-86
2021/03/12 09:58:54;;;;;;;3.28;2.67;;;14.30;46.40;;;;;;5029590;28;20156;-85
2021/03/12 10:01:20;;;;;;;2.70;2.50;;;17.10;42.90;;;;;;5030212;28;20035;-86
2021/03/12 10:03:46;;;;;;;2.83;2.33;;;20.40;40.10;;;;;;5021090;28;20038;-84
2021/03/12 10:06:13;;;;;;;5.88;3.10;;;24.00;35.60;;;;;;5031640;28;20062;-82
2021/03/12 10:09:01;;;;;;;2.78;2.42;;;27.10;32.20;;;;;;5032112;28;20034;-84
2021/03/12 10:11:44;;;;;;;3.25;2.95;;;28.10;28.80;;;;;;5029416;28;20035;-85
2021/03/12 10:14:39;;;;;;;2.63;2.42;;;27.90;28.90;;;;;;5027883;28;20045;-84
2021/03/12 10:17:12;;;;;;;3.47;3.00;;;27.30;28.70;;;;;;5027547;28;20093;-84
2021/03/12 10:19:46;;;;;;;2.80;2.60;;;26.80;29.60;;;;;;5029431;28;20117;-82
2021/03/12 10:22:34;;;;;;;3.10;2.80;;;26.20;27.80;;;;;;5030297;28;20097;-85
2021/03/12 10:25:14;;;;;;;3.10;2.80;;;25.90;29.20;;;;;;5026397;28;20070;-84
2021/03/12 10:27:56;;;;;;;2.85;2.55;;;25.50;29.50;;;;;;5018235;28;20053;-84
2021/03/12 10:30:34;;;;;;;3.95;2.97;;;24.80;29.10;;;;;;5030430;28;20042;-84
2021/03/12 10:33:05;;;;;;;3.45;2.85;;;23.80;30.20;;;;;;5036197;28;20062;-81
2021/03/12 10:35:52;;;;;;;3.72;2.75;;;23.30;30.40;;;;;;5039825;28;20042;-82
2021/03/12 10:38:29;;;;;;;2.78;2.45;;;22.10;32.80;;;;;;5044765;28;20034;-81
2021/03/12 10:41:01;;;;;;;4.38;2.72;;;21.50;34.40;;;;;;5045551;28;20035;-82
2021/03/12 10:43:32;;;;;;;3.67;2.72;;;20.60;34.70;;;;;;5040627;28;20030;-82
2021/03/12 10:46:02;;;;;;;3.80;2.55;;;19.60;35.70;;;;;;5024689;28;20058;-83
2021/03/12 10:48:38;;;;;;;3.05;2.58;;;18.80;34.70;;;;;;5015044;28;20049;-83
2021/03/12 10:51:05;;;;;;;2.85;2.42;;;17.70;38.10;;;;;;5022076;28;20038;-84
2021/03/12 10:53:48;;;;;;;2.72;2.50;;;17.30;39.70;;;;;;5008449;28;20074;-84
2021/03/12 10:56:15;;;;;;;2.78;2.58;;;17.00;40.20;;;;;;5023993;28;20031;-82
2021/03/12 10:58:42;;;;;;;3.90;2.25;;;16.80;40.70;;;;;;5026715;28;20043;-84
2021/03/12 11:01:29;;;;;;;2.70;2.22;;;16.50;40.20;;;;;;5012833;28;20054;-83
2021/03/12 11:04:00;;;;;;;2.83;2.20;;;16.00;40.70;;;;;;5021663;28;20050;-83
2021/03/12 11:06:37;;;;;;;3.38;2.30;;;15.50;43.50;;;;;;5013599;28;20054;-84
2021/03/12 11:09:06;;;;;;;4.43;2.33;;;15.20;44.40;;;;;;5021851;28;20063;-84
2021/03/12 11:11:33;;;;;;;4.32;2.40;;;15.30;43.80;;;;;;4996465;28;20533;-84
2021/03/12 11:13:58;;;;;;;3.45;2.92;;;15.40;43.60;;;;;;5005172;28;20047;-82
2021/03/12 11:16:24;;;;;;;3.97;2.75;;;14.70;42.10;;;;;;5007080;28;20103;-86
2021/03/12 11:18:50;;;;;;;3.00;2.40;;;14.20;45.60;;;;;;5013222;28;20031;-84
2021/03/12 11:21:16;;;;;;;2.30;2.20;;;14.70;43.20;;;;;;5007578;28;20061;-85
2021/03/12 11:23:42;;;;;;;2.67;2.30;;;14.80;42.10;;;;;;5013501;28;20046;-83
2021/03/12 11:26:08;;;;;;;2.60;2.40;;;14.50;42.40;;;;;;4996583;28;20050;-84
2021/03/12 11:28:34;;;;;;;4.15;2.80;;;14.00;44.60;;;;;;5014216;28;20120;-85
2021/03/12 11:31:02;;;;;;;2.88;2.38;;;13.60;44.50;;;;;;5012124;28;20530;-85
2021/03/12 11:33:29;;;;;;;3.75;2.80;;;13.70;44.60;;;;;;5012964;28;20777;-85
2021/03/12 11:35:55;;;;;;;3.00;2.38;;;13.60;44.70;;;;;;4990754;28;20051;-84
2021/03/12 11:38:21;;;;;;;2.90;2.70;;;13.80;43.70;;;;;;5002802;28;20094;-84
2021/03/12 11:40:47;;;;;;;3.47;2.95;;;14.10;44.10;;;;;;5010063;28;20066;-86
2021/03/12 11:43:13;;;;;;;2.72;2.53;;;14.20;43.80;;;;;;5010255;28;20133;-84
2021/03/12 11:45:40;;;;;;;3.55;2.58;;;14.50;44.90;;;;;;4997321;28;20190;-86
2021/03/12 11:48:06;;;;;;;2.85;2.65;;;14.50;44.00;;;;;;5026849;28;20490;-84
2021/03/12 11:50:34;;;;;;;2.88;2.67;;;14.40;43.70;;;;;;5030942;28;20043;-81
2021/03/12 11:53:00;;;;;;;3.17;2.83;;;14.20;42.20;;;;;;5029687;28;20085;-84
2021/03/12 11:55:26;;;;;;;2.60;2.50;;;14.40;43.50;;;;;;5015880;28;20042;-83
2021/03/12 11:57:51;;;;;;;2.97;2.38;;;14.60;43.90;;;;;;5029970;28;20170;-85
2021/03/12 12:00:17;;;;;;;3.00;2.20;;;14.80;44.80;;;;;;5016418;28;20038;-83
2021/03/12 12:02:46;;;;;;;2.88;2.50;;;14.60;40.30;;;;;;5027763;28;20125;-85
2021/03/12 12:05:13;;;;;;;3.08;2.60;;;13.70;43.60;;;;;;5010418;28;20107;-84
2021/03/12 12:07:40;;;;;;;3.05;2.47;;;13.80;45.30;;;;;;5006952;28;20121;-83
2021/03/12 12:10:09;;;;;;;2.38;2.20;;;14.10;44.10;;;;;;5036771;28;20042;-84
2021/03/12 12:12:37;;;;;;;3.97;2.42;;;13.90;43.20;;;;;;5025007;28;20049;-84
2021/03/12 12:15:04;;;;;;;3.08;2.80;;;14.20;45.30;;;;;;5030257;28;20047;-84
2021/03/12 12:17:30;;;;;;;2.50;2.30;;;14.80;44.00;;;;;;5027234;28;20046;-83
2021/03/12 12:19:55;;;;;;;3.97;2.45;;;15.10;42.30;;;;;;5018036;28;20042;-84
2021/03/12 12:22:21;;;;;;;3.72;2.08;;;15.10;41.10;;;;;;5031339;28;20105;-82
2021/03/12 12:24:47;;;;;;;2.50;2.30;;;16.20;39.90;;;;;;5029744;28;20038;-83
2021/03/12 12:27:13;;;;;;;3.45;2.70;;;16.70;40.00;;;;;;5021964;28;20379;-82
2021/03/12 12:29:39;;;;;;;3.25;2.80;;;16.70;39.20;;;;;;4991169;28;20122;-83
2021/03/12 12:32:07;;;;;;;2.72;2.53;;;17.20;38.80;;;;;;4993919;28;20055;-83
2021/03/12 12:34:33;;;;;;;2.70;2.60;;;17.60;36.70;;;;;;5027200;28;20038;-83
2021/03/12 12:36:59;;;;;;;2.92;2.70;;;18.30;37.20;;;;;;5009574;28;20093;-84
2021/03/12 12:39:25;;;;;;;4.07;2.60;;;17.50;37.70;;;;;;5025772;28;20402;-84
2021/03/12 12:41:51;;;;;;;2.53;2.33;;;16.90;38.20;;;;;;4999371;28;20455;-83
2021/03/12 12:44:17;;;;;;;5.15;2.53;;;16.50;38.40;;;;;;5015080;28;20039;-84
2021/03/12 12:46:44;;;;;;;3.78;2.38;;;15.80;39.90;;;;;;5015980;28;20050;-85
2021/03/12 12:49:11;;;;;;;3.67;3.38;;;15.60;40.70;;;;;;5024255;28;20038;-84
2021/03/12 12:51:37;;;;;;;2.55;2.22;;;17.10;39.80;;;;;;5026401;28;20643;-86
2021/03/12 12:54:04;;;;;;;3.22;2.40;;;18.20;37.60;;;;;;5023743;28;20061;-84
2021/03/12 12:56:30;;;;;;;3.35;2.30;;;18.40;35.80;;;;;;5025746;28;21232;-85
2021/03/12 12:58:55;;;;;;;2.38;2.00;;;18.40;36.30;;;;;;5018707;28;20066;-84
2021/03/12 13:01:21;;;;;;;2.55;2.35;;;17.90;37.30;;;;;;5009326;28;20054;-83
2021/03/12 13:03:47;;;;;;;2.22;2.08;;;17.00;36.70;;;;;;5030263;28;20057;-84
2021/03/12 13:06:14;;;;;;;2.83;2.22;;;15.60;38.50;;;;;;5028718;28;20861;-84
2021/03/12 13:08:40;;;;;;;2.92;2.28;;;14.40;40.90;;;;;;5028600;28;20068;-82
2021/03/12 13:11:06;;;;;;;2.40;2.20;;;14.00;40.80;;;;;;5027919;28;20106;-80
2021/03/12 13:13:32;;;;;;;2.30;2.10;;;13.10;41.50;;;;;;5020626;28;20050;-80
2021/03/12 13:15:59;;;;;;;3.67;2.50;;;13.00;42.60;;;;;;5028452;28;20038;-81
2021/03/12 13:18:27;;;;;;;2.45;2.35;;;12.90;43.10;;;;;;5027014;28;20034;-80
2021/03/12 13:20:58;;;;;;;2.80;2.60;;;13.00;43.30;;;;;;5024304;28;20046;-82
2021/03/12 13:23:25;;;;;;;5.43;2.75;;;13.50;45.00;;;;;;5025852;28;20129;-82
2021/03/12 13:25:51;;;;;;;2.50;2.40;;;13.90;46.10;;;;;;5030845;28;20050;-82
2021/03/12 13:28:17;;;;;;;3.28;2.40;;;14.60;45.80;;;;;;5026290;28;20102;-81
2021/03/12 13:30:49;;;;;;;2.80;2.60;;;16.00;45.70;;;;;;5028435;28;20070;-81
2021/03/12 13:33:14;;;;;;;2.92;2.33;;;17.40;43.00;;;;;;5029733;28;20042;-82
2021/03/12 13:35:40;;;;;;;3.10;2.80;;;17.80;42.20;;;;;;5028327;28;20042;-85
2021/03/12 13:38:09;;;;;;;3.83;2.58;;;17.70;41.80;;;;;;5022834;28;20049;-85
2021/03/12 13:40:35;;;;;;;3.38;2.78;;;17.40;42.10;;;;;;4995228;28;20034;-83
2021/03/12 13:43:03;;;;;;;2.67;2.22;;;17.20;43.20;;;;;;5027806;28;20034;-82
2021/03/12 13:45:29;;;;;;;3.30;2.80;;;16.80;43.10;;;;;;5003659;28;20058;-83
2021/03/12 13:47:55;;;;;;;3.08;2.25;;;16.50;43.50;;;;;;5018732;28;20035;-84
2021/03/12 13:50:22;;;;;;;4.03;2.63;;;16.20;44.30;;;;;;5017931;28;20047;-83
2021/03/12 13:52:48;;;;;;;4.35;2.58;;;15.80;44.40;;;;;;5022353;28;20081;-82
2021/03/12 13:55:14;;;;;;;2.83;2.38;;;15.70;44.60;;;;;;5013840;28;20452;-84
2021/03/12 13:57:41;;;;;;;5.35;2.90;;;15.60;44.30;;;;;;5004155;28;20557;-83
2021/03/12 14:00:09;;;;;;;2.45;2.22;;;15.60;44.90;;;;;;5005828;28;20054;-84
2021/03/12 14:02:34;;;;;;;3.85;2.58;;;15.40;45.60;;;;;;5010806;28;20864;-84
2021/03/12 14:05:01;;;;;;;3.28;2.65;;;15.80;46.30;;;;;;5011657;28;20053;-83
2021/03/12 14:07:27;;;;;;;4.90;3.38;;;16.10;45.70;;;;;;5009989;28;20034;-84
2021/03/12 14:09:53;;;;;;;4.15;2.80;;;16.10;44.10;;;;;;5009164;28;20039;-80
2021/03/12 14:12:20;;;;;;;4.20;2.83;;;16.00;44.10;;;;;;5008901;28;20042;-81
2021/03/12 14:14:46;;;;;;;7.20;4.95;;;15.80;44.30;;;;;;5020387;28;20073;-81
2021/03/12 14:17:11;;;;;;;7.03;4.13;;;15.60;44.60;;;;;;5014739;28;21032;-83
2021/03/12 14:19:37;;;;;;;4.78;3.65;;;15.20;44.60;;;;;;5020230;28;20051;-84
2021/03/12 14:22:03;;;;;;;5.80;4.28;;;14.90;45.20;;;;;;5011397;28;20057;-82
2021/03/12 14:24:29;;;;;;;8.27;5.13;;;14.60;45.90;;;;;;5005268;28;20523;-85
2021/03/12 14:26:54;;;;;;;5.57;3.70;;;14.30;46.30;;;;;;5010005;28;20050;-83
2021/03/12 14:29:20;;;;;;;3.17;2.50;;;14.20;46.70;;;;;;5003870;28;20102;-84
2021/03/12 14:31:46;;;;;;;2.20;2.00;;;14.40;46.40;;;;;;5010270;28;20051;-85
2021/03/12 14:34:13;;;;;;;3.45;2.60;;;14.60;45.60;;;;;;5009664;28;20575;-84
2021/03/12 14:36:39;;;;;;;2.58;2.38;;;14.80;45.50;;;;;;5004968;28;20075;-84
2021/03/12 14:39:09;;;;;;;2.67;2.47;;;14.80;45.50;;;;;;5009859;28;20047;-83
2021/03/12 14:41:36;;;;;;;3.17;2.97;;;14.80;44.90;;;;;;5006580;28;20074;-84
2021/03/12 14:44:04;;;;;;;4.13;2.47;;;14.80;45.10;;;;;;5012944;28;20049;-83
2021/03/12 14:46:30;;;;;;;3.03;2.58;;;14.70;45.00;;;;;;5019857;28;20933;-83
2021/03/12 14:48:55;;;;;;;2.88;2.08;;;14.40;44.90;;;;;;5019472;28;20162;-84
2021/03/12 14:51:22;;;;;;;2.60;2.40;;;14.00;45.90;;;;;;5021694;28;20065;-83
2021/03/12 14:53:50;;;;;;;3.63;2.42;;;13.70;46.90;;;;;;5019004;28;20046;-86
2021/03/12 14:56:16;;;;;;;4.32;2.60;;;13.60;47.70;;;;;;5033395;28;20073;-84
2021/03/12 14:58:42;;;;;;;5.55;2.80;;;13.50;47.60;;;;;;5035150;28;20058;-84
2021/03/12 15:01:08;;;;;;;3.08;2.75;;;13.40;48.30;;;;;;5035282;28;20049;-83
2021/03/12 15:03:33;;;;;;;2.75;2.47;;;13.30;48.20;;;;;;5030530;28;20046;-83
2021/03/12 15:06:01;;;;;;;2.83;2.33;;;13.10;48.70;;;;;;5030671;28;20075;-82
2021/03/12 15:08:27;;;;;;;3.78;2.13;;;13.10;48.90;;;;;;5032896;28;20050;-85
2021/03/12 15:10:53;;;;;;;4.25;2.30;;;13.00;48.30;;;;;;5016122;28;20455;-84
2021/03/12 15:13:19;;;;;;;5.70;2.70;;;13.00;48.30;;;;;;5031902;28;20050;-83
2021/03/12 15:15:45;;;;;;;2.55;2.35;;;13.00;48.40;;;;;;5038016;28;20046;-83
2021/03/12 15:18:11;;;;;;;3.65;2.65;;;13.00;48.60;;;;;;5035725;28;20056;-84
2021/03/12 15:20:38;;;;;;;2.55;2.40;;;13.00;48.30;;;;;;5039645;28;20050;-84
2021/03/12 15:23:04;;;;;;;2.70;2.50;;;12.90;48.40;;;;;;5019086;28;20046;-84
2021/03/12 15:25:32;;;;;;;2.80;2.60;;;12.90;48.70;;;;;;5029568;28;20046;-85
2021/03/12 15:27:59;;;;;;;3.72;2.60;;;12.90;48.90;;;;;;5020084;28;20034;-85
2021/03/12 15:30:26;;;;;;;2.72;2.40;;;12.90;48.70;;;;;;5038622;28;20066;-85
2021/03/12 15:32:52;;;;;;;4.50;2.33;;;12.90;48.50;;;;;;5038644;28;20046;-85
2021/03/12 15:35:18;;;;;;;3.40;2.70;;;12.80;48.60;;;;;;5039664;28;20376;-83
2021/03/12 15:37:44;;;;;;;2.40;2.20;;;12.80;48.90;;;;;;5011128;28;20055;-85
2021/03/12 15:40:10;;;;;;;5.40;2.88;;;12.90;48.90;;;;;;5031737;28;20077;-83
2021/03/12 15:42:37;;;;;;;3.80;2.60;;;13.10;49.10;;;;;;5031723;28;20042;-84
2021/03/12 15:45:05;;;;;;;4.25;2.65;;;13.30;48.60;;;;;;5031800;28;20050;-82
2021/03/12 15:47:31;;;;;;;4.88;2.60;;;13.50;47.80;;;;;;5027938;28;20065;-85
2021/03/12 15:49:56;;;;;;;5.10;2.33;;;13.50;47.80;;;;;;5026626;28;20776;-83
2021/03/12 15:52:22;;;;;;;2.50;2.25;;;13.50;47.00;;;;;;5022545;28;20060;-83
2021/03/12 15:54:48;;;;;;;3.67;2.17;;;13.40;47.30;;;;;;5031968;28;20057;-86
2021/03/12 15:57:13;;;;;;;2.90;2.50;;;13.40;47.90;;;;;;5025145;28;20077;-83
2021/03/12 15:59:39;;;;;;;5.20;3.00;;;13.40;47.90;;;;;;5021086;28;20054;-86
2021/03/12 16:02:05;;;;;;;3.03;2.72;;;13.40;47.60;;;;;;5029210;28;20065;-86
2021/03/12 16:04:31;;;;;;;5.30;2.95;;;13.30;47.40;;;;;;5030310;28;20069;-86
2021/03/12 16:06:57;;;;;;;3.92;3.08;;;13.20;47.30;;;;;;5027706;28;20569;-85
2021/03/12 16:09:23;;;;;;;5.72;3.53;;;13.10;47.60;;;;;;5027673;28;20046;-83
2021/03/12 16:11:48;;;;;;;3.50;3.20;;;13.00;47.70;;;;;;5027853;28;20050;-84
2021/03/12 16:14:14;;;;;;;4.20;3.10;;;12.70;47.30;;;;;;5020399;28;20044;-85
2021/03/12 16:16:40;;;;;;;4.93;3.00;;;12.60;45.30;;;;;;5026804;28;20061;-85
2021/03/12 16:19:06;;;;;;;3.85;2.90;;;12.50;45.50;;;;;;5024701;28;20097;-85
2021/03/12 16:21:31;;;;;;;3.20;2.50;;;12.30;45.50;;;;;;5020126;28;20047;-85
2021/03/12 16:23:57;;;;;;;2.40;2.20;;;12.20;44.40;;;;;;5035700;28;20022;-82
2021/03/12 16:26:23;;;;;;;3.08;2.33;;;12.10;44.40;;;;;;5043833;28;20034;-84
2021/03/12 16:28:51;;;;;;;1.90;1.80;;;12.10;45.00;;;;;;5039808;28;20044;-83
2021/03/12 16:31:17;;;;;;;3.78;2.30;;;12.30;45.20;;;;;;5034839;28;20038;-86
2021/03/12 16:33:43;;;;;;;3.85;2.33;;;12.40;45.80;;;;;;5016192;28;20070;-86
2021/03/12 16:36:09;;;;;;;3.17;2.75;;;12.50;44.60;;;;;;5036220;28;20046;-85
2021/03/12 16:38:35;;;;;;;2.10;1.92;;;12.50;44.70;;;;;;5033238;28;20038;-86
2021/03/12 16:41:00;;;;;;;2.63;2.30;;;12.60;44.90;;;;;;5013124;28;20054;-86
2021/03/12 16:43:26;;;;;;;2.63;2.42;;;12.60;45.00;;;;;;5033092;28;20038;-84